sensor_id;sensor_type;location;lat;lon;timestamp;P1;durP1;ratioP1;P2;durP2;ratioP2
50495;SDS011;38806;51.554;5.704;2023-06-22T00:01:26;15.60;;;8.88;;
50495;SDS011;38806;51.554;5.704;2023-06-22T00:03:26;13.68;;;10.32;;
50495;SDS011;38806;51.554;5.704;2023-06-22T00:05:26;13.27;;;9.23;;
50495;SDS011;38806;51.554;5.704;2023-06-22T00:07:27;11.27;;;8.85;;
50495;SDS011;38806;51.554;5.704;2023-06-22T00:09:27;10.73;;;7.68;;
50495;SDS011;38806;51.554;5.704;2023-06-22T00:11:28;15.43;;;9.40;;
50495;SDS011;38806;51.554;5.704;2023-06-22T00:13:28;14.45;;;9.55;;
50495;SDS011;38806;51.554;5.704;2023-06-22T00:15:29;16.02;;;12.35;;
50495;SDS011;38806;51.554;5.704;2023-06-22T00:17:29;14.48;;;9.27;;
50495;SDS011;38806;51.554;5.704;2023-06-22T00:19:29;15.23;;;10.13;;
50495;SDS011;38806;51.554;5.704;2023-06-22T00:21:30;15.45;;;11.18;;
50495;SDS011;38806;51.554;5.704;2023-06-22T00:23:31;13.05;;;9.65;;
50495;SDS011;38806;51.554;5.704;2023-06-22T00:25:37;16.50;;;11.07;;
50495;SDS011;38806;51.554;5.704;2023-06-22T00:27:40;14.43;;;8.85;;
50495;SDS011;38806;51.554;5.704;2023-06-22T00:29:40;14.50;;;11.20;;
50495;SDS011;38806;51.554;5.704;2023-06-22T00:31:41;18.02;;;12.80;;
50495;SDS011;38806;51.554;5.704;2023-06-22T00:33:41;21.08;;;13.15;;
50495;SDS011;38806;51.554;5.704;2023-06-22T00:35:41;16.55;;;11.23;;
50495;SDS011;38806;51.554;5.704;2023-06-22T00:37:42;17.52;;;12.18;;
50495;SDS011;38806;51.554;5.704;2023-06-22T00:39:42;16.88;;;11.23;;
50495;SDS011;38806;51.554;5.704;2023-06-22T00:41:43;15.32;;;10.65;;
50495;SDS011;38806;51.554;5.704;2023-06-22T00:43:43;14.68;;;11.55;;
50495;SDS011;38806;51.554;5.704;2023-06-22T00:45:43;15.90;;;11.73;;
50495;SDS011;38806;51.554;5.704;2023-06-22T00:47:44;15.30;;;10.35;;
50495;SDS011;38806;51.554;5.704;2023-06-22T00:49:44;19.35;;;12.75;;
50495;SDS011;38806;51.554;5.704;2023-06-22T00:51:44;18.73;;;13.27;;
50495;SDS011;38806;51.554;5.704;2023-06-22T00:53:45;20.05;;;12.85;;
50495;SDS011;38806;51.554;5.704;2023-06-22T00:55:53;17.08;;;12.23;;
50495;SDS011;38806;51.554;5.704;2023-06-22T00:57:54;19.05;;;11.77;;
50495;SDS011;38806;51.554;5.704;2023-06-22T01:00:03;17.10;;;12.38;;
50495;SDS011;38806;51.554;5.704;2023-06-22T01:02:06;17.58;;;12.50;;
50495;SDS011;38806;51.554;5.704;2023-06-22T01:04:06;16.67;;;12.02;;
50495;SDS011;38806;51.554;5.704;2023-06-22T01:06:08;19.10;;;14.10;;
50495;SDS011;38806;51.554;5.704;2023-06-22T01:12:43;19.17;;;12.75;;
50495;SDS011;38806;51.554;5.704;2023-06-22T01:14:53;19.67;;;13.48;;
50495;SDS011;38806;51.554;5.704;2023-06-22T01:17:01;19.52;;;12.82;;
50495;SDS011;38806;51.554;5.704;2023-06-22T01:19:08;18.98;;;13.82;;
50495;SDS011;38806;51.554;5.704;2023-06-22T01:21:16;18.98;;;13.57;;
50495;SDS011;38806;51.554;5.704;2023-06-22T01:25:31;19.20;;;13.60;;
50495;SDS011;38806;51.554;5.704;2023-06-22T01:27:47;21.60;;;15.23;;
50495;SDS011;38806;51.554;5.704;2023-06-22T01:29:51;22.48;;;16.25;;
50495;SDS011;38806;51.554;5.704;2023-06-22T01:31:59;20.75;;;14.98;;
50495;SDS011;38806;51.554;5.704;2023-06-22T01:34:00;22.15;;;17.52;;
50495;SDS011;38806;51.554;5.704;2023-06-22T01:36:01;23.75;;;16.08;;
50495;SDS011;38806;51.554;5.704;2023-06-22T01:38:05;26.23;;;17.48;;
50495;SDS011;38806;51.554;5.704;2023-06-22T01:40:06;28.20;;;16.95;;
50495;SDS011;38806;51.554;5.704;2023-06-22T01:42:08;19.95;;;16.17;;
50495;SDS011;38806;51.554;5.704;2023-06-22T01:44:12;22.60;;;16.25;;
50495;SDS011;38806;51.554;5.704;2023-06-22T01:46:12;22.50;;;15.00;;
50495;SDS011;38806;51.554;5.704;2023-06-22T01:48:13;19.88;;;14.50;;
50495;SDS011;38806;51.554;5.704;2023-06-22T01:50:13;23.25;;;17.40;;
50495;SDS011;38806;51.554;5.704;2023-06-22T01:52:13;23.63;;;16.35;;
50495;SDS011;38806;51.554;5.704;2023-06-22T01:54:14;19.92;;;15.57;;
50495;SDS011;38806;51.554;5.704;2023-06-22T01:56:17;20.92;;;14.10;;
50495;SDS011;38806;51.554;5.704;2023-06-22T01:58:18;24.63;;;15.40;;
50495;SDS011;38806;51.554;5.704;2023-06-22T02:00:20;22.52;;;16.08;;
50495;SDS011;38806;51.554;5.704;2023-06-22T02:02:24;23.23;;;15.88;;
50495;SDS011;38806;51.554;5.704;2023-06-22T02:04:34;19.45;;;14.27;;
50495;SDS011;38806;51.554;5.704;2023-06-22T02:06:37;22.08;;;15.20;;
50495;SDS011;38806;51.554;5.704;2023-06-22T02:08:41;22.17;;;17.88;;
50495;SDS011;38806;51.554;5.704;2023-06-22T02:10:52;21.95;;;15.05;;
50495;SDS011;38806;51.554;5.704;2023-06-22T02:12:53;22.50;;;15.63;;
50495;SDS011;38806;51.554;5.704;2023-06-22T02:14:54;21.45;;;16.08;;
50495;SDS011;38806;51.554;5.704;2023-06-22T02:16:55;21.63;;;15.82;;
50495;SDS011;38806;51.554;5.704;2023-06-22T02:19:02;26.50;;;17.88;;
50495;SDS011;38806;51.554;5.704;2023-06-22T02:21:12;26.38;;;18.48;;
50495;SDS011;38806;51.554;5.704;2023-06-22T02:23:21;23.98;;;17.42;;
50495;SDS011;38806;51.554;5.704;2023-06-22T02:25:22;25.38;;;16.17;;
50495;SDS011;38806;51.554;5.704;2023-06-22T02:27:22;27.33;;;18.20;;
50495;SDS011;38806;51.554;5.704;2023-06-22T02:29:22;25.00;;;16.92;;
50495;SDS011;38806;51.554;5.704;2023-06-22T02:31:23;29.10;;;19.58;;
50495;SDS011;38806;51.554;5.704;2023-06-22T02:33:36;29.38;;;21.30;;
50495;SDS011;38806;51.554;5.704;2023-06-22T02:35:36;31.70;;;20.40;;
50495;SDS011;38806;51.554;5.704;2023-06-22T02:37:37;29.33;;;20.75;;
50495;SDS011;38806;51.554;5.704;2023-06-22T02:39:47;26.60;;;18.00;;
50495;SDS011;38806;51.554;5.704;2023-06-22T02:41:48;24.98;;;18.30;;
50495;SDS011;38806;51.554;5.704;2023-06-22T02:43:48;30.08;;;20.38;;
50495;SDS011;38806;51.554;5.704;2023-06-22T02:45:48;29.23;;;20.15;;
50495;SDS011;38806;51.554;5.704;2023-06-22T02:47:55;32.08;;;23.45;;
50495;SDS011;38806;51.554;5.704;2023-06-22T02:50:01;36.30;;;24.92;;
50495;SDS011;38806;51.554;5.704;2023-06-22T02:52:01;29.63;;;21.40;;
50495;SDS011;38806;51.554;5.704;2023-06-22T02:54:08;27.63;;;21.35;;
50495;SDS011;38806;51.554;5.704;2023-06-22T02:56:08;28.42;;;22.15;;
50495;SDS011;38806;51.554;5.704;2023-06-22T02:58:09;31.27;;;22.65;;
50495;SDS011;38806;51.554;5.704;2023-06-22T03:00:15;27.70;;;18.15;;
50495;SDS011;38806;51.554;5.704;2023-06-22T03:02:18;31.10;;;23.08;;
50495;SDS011;38806;51.554;5.704;2023-06-22T03:04:21;29.95;;;20.23;;
50495;SDS011;38806;51.554;5.704;2023-06-22T03:06:21;27.40;;;20.38;;
50495;SDS011;38806;51.554;5.704;2023-06-22T03:08:36;30.55;;;20.20;;
50495;SDS011;38806;51.554;5.704;2023-06-22T03:10:36;28.88;;;19.58;;
50495;SDS011;38806;51.554;5.704;2023-06-22T03:12:37;30.67;;;20.88;;
50495;SDS011;38806;51.554;5.704;2023-06-22T03:14:43;28.77;;;19.98;;
50495;SDS011;38806;51.554;5.704;2023-06-22T03:16:44;28.55;;;19.23;;
50495;SDS011;38806;51.554;5.704;2023-06-22T03:18:44;28.27;;;19.30;;
50495;SDS011;38806;51.554;5.704;2023-06-22T03:20:44;28.55;;;21.10;;
50495;SDS011;38806;51.554;5.704;2023-06-22T03:22:45;28.73;;;21.60;;
50495;SDS011;38806;51.554;5.704;2023-06-22T03:24:51;32.67;;;23.02;;
50495;SDS011;38806;51.554;5.704;2023-06-22T03:26:54;33.05;;;22.98;;
50495;SDS011;38806;51.554;5.704;2023-06-22T03:28:55;30.95;;;21.70;;
50495;SDS011;38806;51.554;5.704;2023-06-22T03:30:57;29.88;;;21.00;;
50495;SDS011;38806;51.554;5.704;2023-06-22T03:32:57;31.70;;;22.65;;
50495;SDS011;38806;51.554;5.704;2023-06-22T03:34:58;33.63;;;22.90;;
50495;SDS011;38806;51.554;5.704;2023-06-22T03:37:07;34.70;;;24.00;;
50495;SDS011;38806;51.554;5.704;2023-06-22T03:39:13;30.80;;;24.35;;
50495;SDS011;38806;51.554;5.704;2023-06-22T03:41:14;28.98;;;22.45;;
50495;SDS011;38806;51.554;5.704;2023-06-22T03:43:17;36.63;;;24.05;;
50495;SDS011;38806;51.554;5.704;2023-06-22T03:45:18;30.85;;;22.25;;
50495;SDS011;38806;51.554;5.704;2023-06-22T03:47:18;31.73;;;23.60;;
50495;SDS011;38806;51.554;5.704;2023-06-22T03:49:18;33.55;;;22.75;;
50495;SDS011;38806;51.554;5.704;2023-06-22T03:51:19;33.38;;;24.23;;
50495;SDS011;38806;51.554;5.704;2023-06-22T03:53:19;32.67;;;22.95;;
50495;SDS011;38806;51.554;5.704;2023-06-22T03:55:20;33.72;;;23.35;;
50495;SDS011;38806;51.554;5.704;2023-06-22T03:57:20;27.15;;;20.48;;
50495;SDS011;38806;51.554;5.704;2023-06-22T03:59:21;27.73;;;19.75;;
50495;SDS011;38806;51.554;5.704;2023-06-22T04:01:21;26.00;;;19.42;;
50495;SDS011;38806;51.554;5.704;2023-06-22T04:03:21;27.65;;;20.10;;
50495;SDS011;38806;51.554;5.704;2023-06-22T04:05:22;35.40;;;23.75;;
50495;SDS011;38806;51.554;5.704;2023-06-22T04:07:29;30.25;;;22.77;;
50495;SDS011;38806;51.554;5.704;2023-06-22T04:09:29;26.23;;;20.17;;
50495;SDS011;38806;51.554;5.704;2023-06-22T04:11:30;33.30;;;24.40;;
50495;SDS011;38806;51.554;5.704;2023-06-22T04:13:30;30.42;;;23.15;;
50495;SDS011;38806;51.554;5.704;2023-06-22T04:15:30;31.58;;;23.35;;
50495;SDS011;38806;51.554;5.704;2023-06-22T04:17:37;34.70;;;25.05;;
50495;SDS011;38806;51.554;5.704;2023-06-22T04:19:37;34.42;;;26.42;;
50495;SDS011;38806;51.554;5.704;2023-06-22T04:21:38;33.45;;;24.30;;
50495;SDS011;38806;51.554;5.704;2023-06-22T04:23:38;30.10;;;23.40;;
50495;SDS011;38806;51.554;5.704;2023-06-22T04:25:39;39.47;;;27.58;;
50495;SDS011;38806;51.554;5.704;2023-06-22T04:27:40;36.30;;;27.95;;
50495;SDS011;38806;51.554;5.704;2023-06-22T04:29:43;34.92;;;26.77;;
50495;SDS011;38806;51.554;5.704;2023-06-22T04:31:54;39.00;;;30.85;;
50495;SDS011;38806;51.554;5.704;2023-06-22T04:34:07;37.17;;;29.73;;
50495;SDS011;38806;51.554;5.704;2023-06-22T04:36:08;37.20;;;31.25;;
50495;SDS011;38806;51.554;5.704;2023-06-22T04:38:12;35.97;;;30.15;;
50495;SDS011;38806;51.554;5.704;2023-06-22T04:40:17;39.13;;;29.48;;
50495;SDS011;38806;51.554;5.704;2023-06-22T04:42:27;41.25;;;31.33;;
50495;SDS011;38806;51.554;5.704;2023-06-22T04:44:28;37.35;;;30.95;;
50495;SDS011;38806;51.554;5.704;2023-06-22T04:46:35;40.72;;;29.75;;
50495;SDS011;38806;51.554;5.704;2023-06-22T04:48:52;37.30;;;30.40;;
50495;SDS011;38806;51.554;5.704;2023-06-22T04:50:56;38.13;;;31.50;;
50495;SDS011;38806;51.554;5.704;2023-06-22T04:53:01;47.60;;;30.98;;
50495;SDS011;38806;51.554;5.704;2023-06-22T04:55:05;40.88;;;31.25;;
50495;SDS011;38806;51.554;5.704;2023-06-22T04:57:06;40.90;;;31.27;;
50495;SDS011;38806;51.554;5.704;2023-06-22T04:59:12;45.85;;;31.38;;
50495;SDS011;38806;51.554;5.704;2023-06-22T05:01:16;40.17;;;29.92;;
50495;SDS011;38806;51.554;5.704;2023-06-22T05:03:17;40.58;;;30.10;;
50495;SDS011;38806;51.554;5.704;2023-06-22T05:05:18;41.28;;;31.92;;
50495;SDS011;38806;51.554;5.704;2023-06-22T05:07:19;41.85;;;32.15;;
50495;SDS011;38806;51.554;5.704;2023-06-22T05:09:19;36.08;;;28.27;;
50495;SDS011;38806;51.554;5.704;2023-06-22T05:11:20;41.38;;;30.42;;
50495;SDS011;38806;51.554;5.704;2023-06-22T05:13:20;38.90;;;29.63;;
50495;SDS011;38806;51.554;5.704;2023-06-22T05:15:21;38.97;;;31.27;;
50495;SDS011;38806;51.554;5.704;2023-06-22T05:17:38;34.28;;;27.80;;
50495;SDS011;38806;51.554;5.704;2023-06-22T05:19:54;34.03;;;28.60;;
50495;SDS011;38806;51.554;5.704;2023-06-22T05:21:56;36.58;;;29.05;;
50495;SDS011;38806;51.554;5.704;2023-06-22T05:23:57;38.55;;;29.33;;
50495;SDS011;38806;51.554;5.704;2023-06-22T05:26:03;36.95;;;28.35;;
50495;SDS011;38806;51.554;5.704;2023-06-22T05:28:04;34.83;;;27.48;;
50495;SDS011;38806;51.554;5.704;2023-06-22T05:30:15;39.15;;;26.70;;
50495;SDS011;38806;51.554;5.704;2023-06-22T05:32:17;33.17;;;25.90;;
50495;SDS011;38806;51.554;5.704;2023-06-22T05:34:19;29.90;;;25.00;;
50495;SDS011;38806;51.554;5.704;2023-06-22T05:36:20;30.88;;;25.33;;
50495;SDS011;38806;51.554;5.704;2023-06-22T05:38:21;33.35;;;24.80;;
50495;SDS011;38806;51.554;5.704;2023-06-22T05:40:22;30.52;;;25.40;;
50495;SDS011;38806;51.554;5.704;2023-06-22T05:42:23;30.58;;;25.13;;
50495;SDS011;38806;51.554;5.704;2023-06-22T05:44:23;34.20;;;24.92;;
50495;SDS011;38806;51.554;5.704;2023-06-22T05:46:27;32.10;;;24.80;;
50495;SDS011;38806;51.554;5.704;2023-06-22T05:48:34;32.92;;;26.08;;
50495;SDS011;38806;51.554;5.704;2023-06-22T05:50:36;34.08;;;27.33;;
50495;SDS011;38806;51.554;5.704;2023-06-22T05:52:37;33.60;;;25.33;;
50495;SDS011;38806;51.554;5.704;2023-06-22T05:54:38;31.23;;;24.55;;
50495;SDS011;38806;51.554;5.704;2023-06-22T05:56:45;31.25;;;24.75;;
50495;SDS011;38806;51.554;5.704;2023-06-22T05:58:46;35.33;;;26.75;;
50495;SDS011;38806;51.554;5.704;2023-06-22T06:00:47;30.27;;;26.17;;
50495;SDS011;38806;51.554;5.704;2023-06-22T06:02:49;33.38;;;24.88;;
50495;SDS011;38806;51.554;5.704;2023-06-22T06:04:50;30.85;;;24.85;;
50495;SDS011;38806;51.554;5.704;2023-06-22T06:06:59;29.23;;;23.30;;
50495;SDS011;38806;51.554;5.704;2023-06-22T06:09:00;47.97;;;27.85;;
50495;SDS011;38806;51.554;5.704;2023-06-22T06:11:07;29.40;;;24.20;;
50495;SDS011;38806;51.554;5.704;2023-06-22T06:13:09;33.72;;;24.40;;
50495;SDS011;38806;51.554;5.704;2023-06-22T06:15:11;32.05;;;24.58;;
50495;SDS011;38806;51.554;5.704;2023-06-22T06:17:18;29.80;;;23.98;;
50495;SDS011;38806;51.554;5.704;2023-06-22T06:19:19;32.40;;;23.67;;
50495;SDS011;38806;51.554;5.704;2023-06-22T06:21:20;29.77;;;23.48;;
50495;SDS011;38806;51.554;5.704;2023-06-22T06:23:20;25.35;;;22.15;;
50495;SDS011;38806;51.554;5.704;2023-06-22T06:25:21;27.08;;;20.85;;
50495;SDS011;38806;51.554;5.704;2023-06-22T06:27:22;24.17;;;20.42;;
50495;SDS011;38806;51.554;5.704;2023-06-22T06:29:35;24.40;;;20.48;;
50495;SDS011;38806;51.554;5.704;2023-06-22T06:31:36;23.25;;;20.42;;
50495;SDS011;38806;51.554;5.704;2023-06-22T06:33:37;23.40;;;20.85;;
50495;SDS011;38806;51.554;5.704;2023-06-22T06:35:38;22.15;;;19.50;;
50495;SDS011;38806;51.554;5.704;2023-06-22T06:37:40;20.85;;;18.05;;
50495;SDS011;38806;51.554;5.704;2023-06-22T06:39:41;23.20;;;20.55;;
50495;SDS011;38806;51.554;5.704;2023-06-22T06:41:43;24.30;;;18.65;;
50495;SDS011;38806;51.554;5.704;2023-06-22T06:43:44;25.40;;;19.75;;
50495;SDS011;38806;51.554;5.704;2023-06-22T06:45:52;22.23;;;19.05;;
50495;SDS011;38806;51.554;5.704;2023-06-22T06:48:00;26.48;;;21.77;;
50495;SDS011;38806;51.554;5.704;2023-06-22T06:50:00;23.80;;;21.13;;
50495;SDS011;38806;51.554;5.704;2023-06-22T06:52:04;26.98;;;20.17;;
50495;SDS011;38806;51.554;5.704;2023-06-22T06:54:06;26.35;;;21.25;;
50495;SDS011;38806;51.554;5.704;2023-06-22T06:56:13;27.60;;;21.65;;
50495;SDS011;38806;51.554;5.704;2023-06-22T06:58:15;28.08;;;22.63;;
50495;SDS011;38806;51.554;5.704;2023-06-22T07:00:16;26.20;;;22.08;;
50495;SDS011;38806;51.554;5.704;2023-06-22T07:02:17;22.90;;;20.40;;
50495;SDS011;38806;51.554;5.704;2023-06-22T07:04:17;28.77;;;22.08;;
50495;SDS011;38806;51.554;5.704;2023-06-22T07:06:21;26.17;;;19.30;;
50495;SDS011;38806;51.554;5.704;2023-06-22T07:08:23;24.52;;;19.58;;
50495;SDS011;38806;51.554;5.704;2023-06-22T07:10:23;26.27;;;20.67;;
50495;SDS011;38806;51.554;5.704;2023-06-22T07:12:24;22.90;;;20.38;;
50495;SDS011;38806;51.554;5.704;2023-06-22T07:14:25;22.65;;;19.60;;
50495;SDS011;38806;51.554;5.704;2023-06-22T07:16:26;22.27;;;19.98;;
50495;SDS011;38806;51.554;5.704;2023-06-22T07:18:28;24.40;;;19.90;;
50495;SDS011;38806;51.554;5.704;2023-06-22T07:20:29;26.30;;;21.45;;
50495;SDS011;38806;51.554;5.704;2023-06-22T07:22:41;22.38;;;19.95;;
50495;SDS011;38806;51.554;5.704;2023-06-22T07:24:45;20.85;;;18.55;;
50495;SDS011;38806;51.554;5.704;2023-06-22T07:26:48;24.10;;;21.23;;
50495;SDS011;38806;51.554;5.704;2023-06-22T07:28:50;22.98;;;20.48;;
50495;SDS011;38806;51.554;5.704;2023-06-22T07:30:54;24.50;;;20.45;;
50495;SDS011;38806;51.554;5.704;2023-06-22T07:32:57;21.73;;;19.40;;
50495;SDS011;38806;51.554;5.704;2023-06-22T07:35:07;24.05;;;16.77;;
50495;SDS011;38806;51.554;5.704;2023-06-22T07:37:07;20.33;;;17.63;;
50495;SDS011;38806;51.554;5.704;2023-06-22T07:39:08;19.23;;;17.20;;
50495;SDS011;38806;51.554;5.704;2023-06-22T07:41:08;19.88;;;16.27;;
50495;SDS011;38806;51.554;5.704;2023-06-22T07:43:14;20.70;;;17.13;;
50495;SDS011;38806;51.554;5.704;2023-06-22T07:45:15;20.83;;;18.00;;
50495;SDS011;38806;51.554;5.704;2023-06-22T07:47:19;22.55;;;17.73;;
50495;SDS011;38806;51.554;5.704;2023-06-22T07:49:20;20.83;;;18.63;;
50495;SDS011;38806;51.554;5.704;2023-06-22T07:51:21;20.30;;;16.80;;
50495;SDS011;38806;51.554;5.704;2023-06-22T07:53:22;20.55;;;17.58;;
50495;SDS011;38806;51.554;5.704;2023-06-22T07:55:23;21.35;;;19.15;;
50495;SDS011;38806;51.554;5.704;2023-06-22T07:57:23;23.40;;;19.13;;
50495;SDS011;38806;51.554;5.704;2023-06-22T08:01:39;21.85;;;19.00;;
50495;SDS011;38806;51.554;5.704;2023-06-22T08:03:40;23.02;;;19.30;;
50495;SDS011;38806;51.554;5.704;2023-06-22T08:05:57;21.48;;;18.80;;
50495;SDS011;38806;51.554;5.704;2023-06-22T08:08:05;21.67;;;18.70;;
50495;SDS011;38806;51.554;5.704;2023-06-22T08:10:09;22.75;;;19.83;;
50495;SDS011;38806;51.554;5.704;2023-06-22T08:12:10;21.33;;;19.02;;
50495;SDS011;38806;51.554;5.704;2023-06-22T08:14:17;22.45;;;19.42;;
50495;SDS011;38806;51.554;5.704;2023-06-22T08:16:23;24.65;;;21.27;;
50495;SDS011;38806;51.554;5.704;2023-06-22T08:18:23;24.73;;;19.02;;
50495;SDS011;38806;51.554;5.704;2023-06-22T08:20:24;22.95;;;19.83;;
50495;SDS011;38806;51.554;5.704;2023-06-22T08:22:25;23.70;;;19.98;;
50495;SDS011;38806;51.554;5.704;2023-06-22T08:24:25;23.92;;;20.42;;
50495;SDS011;38806;51.554;5.704;2023-06-22T08:26:25;21.48;;;18.75;;
50495;SDS011;38806;51.554;5.704;2023-06-22T08:28:26;22.73;;;20.27;;
50495;SDS011;38806;51.554;5.704;2023-06-22T08:30:26;23.02;;;20.52;;
50495;SDS011;38806;51.554;5.704;2023-06-22T08:32:27;24.35;;;21.75;;
50495;SDS011;38806;51.554;5.704;2023-06-22T08:34:27;21.17;;;18.55;;
50495;SDS011;38806;51.554;5.704;2023-06-22T08:36:29;23.02;;;20.35;;
50495;SDS011;38806;51.554;5.704;2023-06-22T08:38:32;23.10;;;19.15;;
50495;SDS011;38806;51.554;5.704;2023-06-22T08:40:36;18.70;;;16.50;;
50495;SDS011;38806;51.554;5.704;2023-06-22T08:42:36;24.27;;;21.67;;
50495;SDS011;38806;51.554;5.704;2023-06-22T08:44:37;22.20;;;19.20;;
50495;SDS011;38806;51.554;5.704;2023-06-22T08:46:38;25.92;;;20.77;;
50495;SDS011;38806;51.554;5.704;2023-06-22T08:48:40;24.13;;;20.42;;
50495;SDS011;38806;51.554;5.704;2023-06-22T08:50:41;23.80;;;20.52;;
50495;SDS011;38806;51.554;5.704;2023-06-22T08:52:41;21.95;;;19.08;;
50495;SDS011;38806;51.554;5.704;2023-06-22T08:54:42;22.73;;;19.15;;
50495;SDS011;38806;51.554;5.704;2023-06-22T08:56:42;21.70;;;18.45;;
50495;SDS011;38806;51.554;5.704;2023-06-22T08:58:44;19.83;;;17.73;;
50495;SDS011;38806;51.554;5.704;2023-06-22T09:00:44;21.08;;;18.25;;
50495;SDS011;38806;51.554;5.704;2023-06-22T09:02:50;20.58;;;18.40;;
50495;SDS011;38806;51.554;5.704;2023-06-22T09:04:51;18.80;;;16.63;;
50495;SDS011;38806;51.554;5.704;2023-06-22T09:07:02;21.27;;;18.92;;
50495;SDS011;38806;51.554;5.704;2023-06-22T09:09:02;21.85;;;17.50;;
50495;SDS011;38806;51.554;5.704;2023-06-22T09:11:03;20.20;;;17.55;;
50495;SDS011;38806;51.554;5.704;2023-06-22T09:13:03;20.85;;;18.02;;
50495;SDS011;38806;51.554;5.704;2023-06-22T09:15:04;23.73;;;20.95;;
50495;SDS011;38806;51.554;5.704;2023-06-22T09:17:04;21.45;;;18.38;;
50495;SDS011;38806;51.554;5.704;2023-06-22T09:19:04;21.85;;;19.58;;
50495;SDS011;38806;51.554;5.704;2023-06-22T09:21:05;25.30;;;19.07;;
50495;SDS011;38806;51.554;5.704;2023-06-22T09:23:05;20.77;;;18.58;;
50495;SDS011;38806;51.554;5.704;2023-06-22T09:25:05;26.70;;;19.07;;
50495;SDS011;38806;51.554;5.704;2023-06-22T09:27:06;23.70;;;18.73;;
50495;SDS011;38806;51.554;5.704;2023-06-22T09:29:06;24.42;;;20.25;;
50495;SDS011;38806;51.554;5.704;2023-06-22T09:31:06;25.65;;;20.38;;
50495;SDS011;38806;51.554;5.704;2023-06-22T09:33:07;25.25;;;20.10;;
50495;SDS011;38806;51.554;5.704;2023-06-22T09:35:07;29.38;;;20.65;;
50495;SDS011;38806;51.554;5.704;2023-06-22T09:37:08;30.52;;;21.88;;
50495;SDS011;38806;51.554;5.704;2023-06-22T09:39:09;24.58;;;19.58;;
50495;SDS011;38806;51.554;5.704;2023-06-22T09:41:09;23.55;;;20.95;;
50495;SDS011;38806;51.554;5.704;2023-06-22T09:43:09;23.25;;;19.60;;
50495;SDS011;38806;51.554;5.704;2023-06-22T09:45:10;21.90;;;19.47;;
50495;SDS011;38806;51.554;5.704;2023-06-22T09:47:10;21.98;;;19.67;;
50495;SDS011;38806;51.554;5.704;2023-06-22T09:49:11;22.48;;;20.08;;
50495;SDS011;38806;51.554;5.704;2023-06-22T09:51:14;26.13;;;21.92;;
50495;SDS011;38806;51.554;5.704;2023-06-22T09:53:15;26.02;;;20.17;;
50495;SDS011;38806;51.554;5.704;2023-06-22T09:55:19;23.77;;;21.15;;
50495;SDS011;38806;51.554;5.704;2023-06-22T09:57:19;24.40;;;21.83;;
50495;SDS011;38806;51.554;5.704;2023-06-22T09:59:23;24.58;;;21.02;;
50495;SDS011;38806;51.554;5.704;2023-06-22T10:01:29;26.08;;;22.05;;
50495;SDS011;38806;51.554;5.704;2023-06-22T10:03:30;25.20;;;22.27;;
50495;SDS011;38806;51.554;5.704;2023-06-22T10:05:30;24.38;;;20.70;;
50495;SDS011;38806;51.554;5.704;2023-06-22T10:07:35;25.15;;;22.52;;
50495;SDS011;38806;51.554;5.704;2023-06-22T10:09:42;26.35;;;20.92;;
50495;SDS011;38806;51.554;5.704;2023-06-22T10:11:42;23.23;;;20.58;;
50495;SDS011;38806;51.554;5.704;2023-06-22T10:13:46;24.42;;;20.70;;
50495;SDS011;38806;51.554;5.704;2023-06-22T10:15:49;23.33;;;20.80;;
50495;SDS011;38806;51.554;5.704;2023-06-22T10:17:52;26.40;;;22.00;;
50495;SDS011;38806;51.554;5.704;2023-06-22T10:19:59;24.98;;;21.55;;
50495;SDS011;38806;51.554;5.704;2023-06-22T10:21:59;23.58;;;20.88;;
50495;SDS011;38806;51.554;5.704;2023-06-22T10:23:59;22.55;;;20.02;;
50495;SDS011;38806;51.554;5.704;2023-06-22T10:26:05;24.58;;;22.13;;
50495;SDS011;38806;51.554;5.704;2023-06-22T10:28:12;22.00;;;19.38;;
50495;SDS011;38806;51.554;5.704;2023-06-22T10:30:15;26.30;;;20.45;;
50495;SDS011;38806;51.554;5.704;2023-06-22T10:32:15;22.67;;;19.38;;
50495;SDS011;38806;51.554;5.704;2023-06-22T10:34:16;19.17;;;17.17;;
50495;SDS011;38806;51.554;5.704;2023-06-22T10:36:16;20.33;;;17.23;;
50495;SDS011;38806;51.554;5.704;2023-06-22T10:38:16;20.05;;;18.00;;
50495;SDS011;38806;51.554;5.704;2023-06-22T10:40:17;19.67;;;17.77;;
50495;SDS011;38806;51.554;5.704;2023-06-22T10:42:18;18.98;;;15.38;;
50495;SDS011;38806;51.554;5.704;2023-06-22T10:44:22;19.08;;;16.90;;
50495;SDS011;38806;51.554;5.704;2023-06-22T10:46:24;19.65;;;16.45;;
50495;SDS011;38806;51.554;5.704;2023-06-22T10:48:24;17.83;;;15.88;;
50495;SDS011;38806;51.554;5.704;2023-06-22T10:50:25;19.25;;;16.17;;
50495;SDS011;38806;51.554;5.704;2023-06-22T10:52:25;26.48;;;18.63;;
50495;SDS011;38806;51.554;5.704;2023-06-22T10:54:26;34.22;;;20.50;;
50495;SDS011;38806;51.554;5.704;2023-06-22T10:56:26;24.65;;;16.48;;
50495;SDS011;38806;51.554;5.704;2023-06-22T10:58:26;21.08;;;18.90;;
50495;SDS011;38806;51.554;5.704;2023-06-22T11:00:27;23.33;;;19.85;;
50495;SDS011;38806;51.554;5.704;2023-06-22T11:02:27;27.08;;;22.55;;
50495;SDS011;38806;51.554;5.704;2023-06-22T11:04:28;30.67;;;25.48;;
50495;SDS011;38806;51.554;5.704;2023-06-22T11:06:29;34.15;;;29.20;;
50495;SDS011;38806;51.554;5.704;2023-06-22T11:08:29;38.92;;;30.27;;
50495;SDS011;38806;51.554;5.704;2023-06-22T11:10:29;35.08;;;31.30;;
50495;SDS011;38806;51.554;5.704;2023-06-22T11:12:29;37.92;;;29.63;;
50495;SDS011;38806;51.554;5.704;2023-06-22T11:14:30;33.28;;;29.45;;
50495;SDS011;38806;51.554;5.704;2023-06-22T11:16:36;37.33;;;31.03;;
50495;SDS011;38806;51.554;5.704;2023-06-22T11:18:36;41.10;;;32.25;;
50495;SDS011;38806;51.554;5.704;2023-06-22T11:20:37;47.55;;;37.30;;
50495;SDS011;38806;51.554;5.704;2023-06-22T11:22:39;54.85;;;41.47;;
50495;SDS011;38806;51.554;5.704;2023-06-22T11:24:39;55.20;;;42.85;;
50495;SDS011;38806;51.554;5.704;2023-06-22T11:26:40;58.10;;;45.42;;
50495;SDS011;38806;51.554;5.704;2023-06-22T11:28:40;56.22;;;45.00;;
50495;SDS011;38806;51.554;5.704;2023-06-22T11:30:40;63.28;;;47.97;;
50495;SDS011;38806;51.554;5.704;2023-06-22T11:32:41;68.88;;;52.53;;
50495;SDS011;38806;51.554;5.704;2023-06-22T11:34:41;86.53;;;59.40;;
50495;SDS011;38806;51.554;5.704;2023-06-22T11:36:41;87.28;;;60.58;;
50495;SDS011;38806;51.554;5.704;2023-06-22T11:38:48;84.22;;;61.13;;
50495;SDS011;38806;51.554;5.704;2023-06-22T11:40:54;81.45;;;57.97;;
50495;SDS011;38806;51.554;5.704;2023-06-22T11:42:54;87.97;;;64.13;;
50495;SDS011;38806;51.554;5.704;2023-06-22T11:44:55;88.90;;;62.15;;
50495;SDS011;38806;51.554;5.704;2023-06-22T11:46:58;85.50;;;62.17;;
50495;SDS011;38806;51.554;5.704;2023-06-22T11:49:07;102.93;;;67.60;;
50495;SDS011;38806;51.554;5.704;2023-06-22T11:51:11;128.93;;;75.65;;
50495;SDS011;38806;51.554;5.704;2023-06-22T11:53:14;104.93;;;67.68;;
50495;SDS011;38806;51.554;5.704;2023-06-22T11:55:17;102.28;;;67.93;;
50495;SDS011;38806;51.554;5.704;2023-06-22T11:57:17;102.28;;;72.72;;
50495;SDS011;38806;51.554;5.704;2023-06-22T11:59:17;116.18;;;77.80;;
50495;SDS011;38806;51.554;5.704;2023-06-22T12:01:18;107.93;;;74.35;;
50495;SDS011;38806;51.554;5.704;2023-06-22T12:03:18;135.77;;;83.65;;
50495;SDS011;38806;51.554;5.704;2023-06-22T12:05:22;109.85;;;75.80;;